Alum Ridge, VA

7:03 AM EDT on May 30, 2015 (GMT -0400)
Blue Mountain School | | Change Station
CLOSE
Current Station
Personal Weather Station
Location: Floyd, VA
Elevation: 2461 ft
Nearby Weather Stations

Elev 2461 ft 36.93 °N, 80.31 °W | Updated 3 minutes ago

Mostly Cloudy
Mostly Cloudy
56.5 °F
Feels Like 56.5 °F
N
0.0
Wind Variable Wind from East
Gusts 0.0 mph

Today
High -- | Low -- °F
--% Chance of Precip.
Yesterday
High -- | Low -- °F
Precip. -- in
6:04 AM 8:33 PM
Waxing Gibbous, 89% visible
Pressure 30.28 in
Visibility 0.2 miles
Clouds Overcast 200 ft
Dew Point 56 °F
Humidity 99%
Rainfall 0.00 in
Snow Depth Not available.
UV 1.0 out of 12
Pollen 5.80 out of 12
Air Quality Not available.
Flu Activity Sporadic
METAR KBCB 301055Z AUTO 00000KT M1/4SM FG OVC002 16/16 A3028 RMK AO2 T01590156

More Conditions Fewer Conditions

Pressure 30.28 in
Visibility 0.2 miles
Clouds Overcast 200 ft
Dew Point 56 °F
Humidity 99%
Rainfall 0.00 in
Snow Depth Not available.
UV 1.0 out of 12
Pollen 5.80 out of 12
Air Quality Not available.
Flu Activity Sporadic
METAR KBCB 301055Z AUTO 00000KT M1/4SM FG OVC002 16/16 A3028 RMK AO2 T01590156

More Conditions Fewer Conditions

10-Day Weather Forecast

Almanac

Astronomy

May. 30, 2015 Rise Set
Actual Time
Civil Twilight
Nautical Twilight
Astronomical Twilight
Moon
Length of Visible Light
Length of Day
Tomorrow will be .
, % of the Moon is Illuminated

Today's Extremes

State Highs State Lows

Community

WunderPhotos

Upload Photos

1,825,478 photos uploaded!

WunderBlogs® & News

Nearby

Air Quality

  Air Quality AQ Index Pollutant
Not available.

Snow Depth

Station Depth Elevation

Earthquake Activity

City Distance Mag. Time & Date
Minimum magnitude displayed is 2.5.

Coastal Water Temperatures

Place Temperature

Stations

Nearby Weather Stations

Station Location Temp. Windchill Dew Point Humidity Wind Precip. Elev Updated Type